createdAt,value
2018-07-30T00:02:07.762Z,44.90
2018-07-30T00:07:11.197Z,45.10
2018-07-30T00:12:15.268Z,45.20
2018-07-30T00:17:18.703Z,44.80
2018-07-30T00:22:22.015Z,45.20
2018-07-30T00:27:25.311Z,45.70
2018-07-30T00:32:28.670Z,45.70
2018-07-30T00:37:31.988Z,46.20
2018-07-30T00:42:35.249Z,46.20
2018-07-30T00:47:38.545Z,46.40
2018-07-30T00:52:41.906Z,46.40
2018-07-30T00:57:45.171Z,46.40
2018-07-30T01:02:48.456Z,46.40
2018-07-30T01:07:51.798Z,46.80
2018-07-30T01:12:55.099Z,46.30
2018-07-30T01:17:58.415Z,47.40
2018-07-30T01:23:01.733Z,47.80
2018-07-30T01:28:05.187Z,47.20
2018-07-30T01:33:08.518Z,47.90
2018-07-30T01:38:11.791Z,49.70
2018-07-30T01:43:15.047Z,49.10
2018-07-30T01:48:18.348Z,49.20
2018-07-30T01:53:21.604Z,50.00
2018-07-30T01:58:24.946Z,49.20
2018-07-30T02:03:28.286Z,49.40
2018-07-30T02:08:31.554Z,49.50
2018-07-30T02:13:34.876Z,49.20
2018-07-30T02:18:38.163Z,50.20
2018-07-30T02:23:41.474Z,49.60
2018-07-30T02:28:44.798Z,49.30
2018-07-30T02:33:48.536Z,49.30
2018-07-30T02:38:51.780Z,49.20
2018-07-30T02:43:55.352Z,49.30
2018-07-30T02:48:59.199Z,49.20
2018-07-30T02:54:02.821Z,49.50
2018-07-30T02:59:06.377Z,49.30
2018-07-30T03:04:10.544Z,49.50
2018-07-30T03:09:13.874Z,50.10
2018-07-30T03:14:17.442Z,50.10
2018-07-30T03:19:21.099Z,50.20
2018-07-30T03:24:24.443Z,50.50
2018-07-30T03:29:27.704Z,50.70
2018-07-30T03:34:30.982Z,50.60
2018-07-30T03:39:34.535Z,50.30
2018-07-30T03:44:37.900Z,51.90
2018-07-30T03:49:41.304Z,53.70
2018-07-30T03:54:44.686Z,51.80
2018-07-30T03:59:47.938Z,51.00
2018-07-30T04:04:51.228Z,51.00
2018-07-30T04:09:54.519Z,50.60
2018-07-30T04:14:57.774Z,50.60
2018-07-30T04:20:01.054Z,50.60
2018-07-30T04:30:13.254Z,51.00
2018-07-30T04:35:16.967Z,51.10
2018-07-30T04:40:20.575Z,50.90
2018-07-30T04:45:23.932Z,51.20
2018-07-30T04:50:27.294Z,51.20
2018-07-30T04:55:30.603Z,50.60
2018-07-30T05:00:33.911Z,50.70
2018-07-30T05:05:38.316Z,49.60
2018-07-30T05:10:42.696Z,48.40
2018-07-30T05:15:45.999Z,47.30
2018-07-30T05:20:49.259Z,46.40
2018-07-30T05:25:52.676Z,46.00
2018-07-30T05:30:55.967Z,46.80
2018-07-30T05:35:59.222Z,47.70
2018-07-30T05:41:02.508Z,48.70
2018-07-30T05:46:05.988Z,48.20
2018-07-30T05:51:09.311Z,48.90
2018-07-30T05:56:12.654Z,49.70
2018-07-30T06:01:16.122Z,49.60
2018-07-30T06:06:19.404Z,49.30
2018-07-30T06:11:22.880Z,49.40
2018-07-30T06:16:27.189Z,49.50
2018-07-30T06:21:30.447Z,49.60
2018-07-30T06:26:33.835Z,49.40
2018-07-30T06:31:38.601Z,49.40
2018-07-30T06:36:41.982Z,49.30
2018-07-30T06:41:45.293Z,48.90
2018-07-30T06:46:48.598Z,49.20
2018-07-30T06:51:52.034Z,49.00
2018-07-30T06:56:55.402Z,48.80
2018-07-30T07:01:58.712Z,48.60
2018-07-30T07:07:01.984Z,49.00
2018-07-30T07:12:05.281Z,48.60
2018-07-30T07:17:09.046Z,48.40
2018-07-30T07:22:12.365Z,48.40
2018-07-30T07:27:15.623Z,48.50
2018-07-30T07:32:18.917Z,47.80
2018-07-30T07:37:22.355Z,47.10
2018-07-30T07:42:25.675Z,45.90
2018-07-30T07:47:29.003Z,45.50
2018-07-30T07:52:32.632Z,45.80
2018-07-30T07:57:35.970Z,45.00
2018-07-30T08:02:39.445Z,44.30
2018-07-30T08:07:42.700Z,43.80
2018-07-30T08:12:45.944Z,43.10
2018-07-30T08:17:49.311Z,43.10
2018-07-30T08:22:52.669Z,42.30
2018-07-30T08:27:55.980Z,41.30
2018-07-30T08:32:59.292Z,40.70
2018-07-30T08:38:02.623Z,40.60
2018-07-30T08:43:05.971Z,40.70
2018-07-30T08:48:09.229Z,38.80
2018-07-30T08:53:13.245Z,38.30
2018-07-30T08:58:16.619Z,37.60
2018-07-30T09:03:19.975Z,36.90
2018-07-30T09:08:23.250Z,37.00
2018-07-30T09:13:26.496Z,36.00
2018-07-30T09:18:29.743Z,36.60
2018-07-30T09:23:33.051Z,36.30
2018-07-30T09:28:36.403Z,37.40
2018-07-30T09:33:39.658Z,34.40
2018-07-30T09:38:43.044Z,34.30
2018-07-30T09:43:46.618Z,36.20
2018-07-30T09:48:49.922Z,34.10
2018-07-30T09:53:54.118Z,33.20
2018-07-30T09:58:57.390Z,33.30
2018-07-30T10:04:01.279Z,32.70
2018-07-30T10:09:09.543Z,33.90
2018-07-30T10:14:12.794Z,33.20
2018-07-30T10:19:16.097Z,31.80
2018-07-30T10:24:19.386Z,31.60
2018-07-30T10:29:22.706Z,30.90
2018-07-30T10:34:26.002Z,29.60
2018-07-30T10:44:32.335Z,30.30
2018-07-30T10:49:35.621Z,31.90
2018-07-30T10:54:38.887Z,30.40
2018-07-30T10:59:42.214Z,31.20
2018-07-30T11:04:45.458Z,29.40
2018-07-30T11:09:48.817Z,28.40
2018-07-30T11:14:51.994Z,28.00
2018-07-30T11:19:55.333Z,29.50
2018-07-30T11:24:58.623Z,28.00
2018-07-30T11:30:01.966Z,29.60
2018-07-30T11:35:05.410Z,29.60
2018-07-30T11:40:08.668Z,28.60
2018-07-30T11:45:11.966Z,28.90
2018-07-30T11:50:15.268Z,29.20
2018-07-30T11:55:18.526Z,29.00
2018-07-30T12:00:21.822Z,27.90
2018-07-30T12:05:25.182Z,29.10
2018-07-30T12:10:28.430Z,28.80
2018-07-30T12:15:31.742Z,28.00
2018-07-30T12:20:35.008Z,27.60
2018-07-30T12:25:38.339Z,27.80
2018-07-30T12:35:44.603Z,29.10
2018-07-30T12:40:47.867Z,27.40
2018-07-30T12:45:51.114Z,26.70
2018-07-30T12:50:54.386Z,27.10
2018-07-30T12:55:57.650Z,26.80
2018-07-30T13:01:01.009Z,27.20
2018-07-30T13:06:04.260Z,27.40
2018-07-30T13:11:07.535Z,28.10
2018-07-30T13:16:10.824Z,27.80
2018-07-30T13:21:14.121Z,28.00
2018-07-30T13:26:17.476Z,27.10
2018-07-30T13:31:20.726Z,27.50
2018-07-30T13:36:24.125Z,28.50
2018-07-30T13:41:27.524Z,28.10
2018-07-30T13:46:30.915Z,28.00
2018-07-30T13:51:34.142Z,28.80
2018-07-30T13:56:37.563Z,27.20
2018-07-30T14:01:40.968Z,27.30
2018-07-30T14:06:44.319Z,28.50
2018-07-30T14:11:47.658Z,26.90
2018-07-30T14:16:50.955Z,27.70
2018-07-30T14:21:54.214Z,26.90
2018-07-30T14:26:57.505Z,26.70
2018-07-30T14:32:00.757Z,27.20
2018-07-30T14:37:04.165Z,27.00
2018-07-30T14:42:07.456Z,26.40
2018-07-30T14:47:10.715Z,27.00
2018-07-30T14:52:13.993Z,27.00
2018-07-30T14:57:17.264Z,27.60
2018-07-30T15:02:20.552Z,27.80
2018-07-30T15:07:23.876Z,27.50
2018-07-30T15:12:27.182Z,27.40
2018-07-30T15:17:30.421Z,27.40
2018-07-30T15:22:33.730Z,28.10
2018-07-30T15:27:37.046Z,27.80
2018-07-30T15:32:40.363Z,27.50
2018-07-30T15:37:43.640Z,28.30
2018-07-30T15:42:47.810Z,27.60
2018-07-30T15:47:51.056Z,27.30
2018-07-30T15:52:54.351Z,27.50
2018-07-30T15:57:57.637Z,27.00
2018-07-30T16:03:00.930Z,27.30
2018-07-30T16:08:04.219Z,28.20
2018-07-30T16:13:07.579Z,28.00
2018-07-30T16:18:10.870Z,28.00
2018-07-30T16:23:14.287Z,28.60
2018-07-30T16:28:17.527Z,28.90
2018-07-30T16:33:20.797Z,28.70
2018-07-30T16:38:24.086Z,28.80
2018-07-30T16:43:27.363Z,28.90
2018-07-30T16:48:30.679Z,28.80
2018-07-30T16:53:33.929Z,28.50
2018-07-30T16:58:37.634Z,28.30
2018-07-30T17:03:40.945Z,28.40
2018-07-30T17:08:44.267Z,28.70
2018-07-30T17:13:47.560Z,28.50
2018-07-30T17:18:50.974Z,28.50
2018-07-30T17:23:54.215Z,29.20
2018-07-30T17:28:57.611Z,29.40
2018-07-30T17:34:00.857Z,29.60
2018-07-30T17:39:06.067Z,30.10
2018-07-30T17:44:09.324Z,30.00
2018-07-30T17:49:12.643Z,29.70
2018-07-30T17:54:15.916Z,30.10
2018-07-30T17:59:19.198Z,31.00
2018-07-30T18:04:22.463Z,31.00
2018-07-30T18:09:25.764Z,31.80
2018-07-30T18:14:29.047Z,32.10
2018-07-30T18:19:32.386Z,32.60
2018-07-30T18:24:35.661Z,32.00
2018-07-30T18:29:38.994Z,31.90
2018-07-30T18:34:42.236Z,32.30
2018-07-30T18:39:45.511Z,32.50
2018-07-30T18:44:48.798Z,33.00
2018-07-30T18:49:52.249Z,33.10
2018-07-30T18:54:55.537Z,33.40
2018-07-30T18:59:58.831Z,33.50
2018-07-30T19:05:02.121Z,34.10
2018-07-30T19:10:06.164Z,34.20
2018-07-30T19:15:09.518Z,34.60
2018-07-30T19:20:12.785Z,34.60
2018-07-30T19:25:16.052Z,35.10
2018-07-30T19:30:19.371Z,35.10
2018-07-30T19:35:22.640Z,35.70
2018-07-30T19:40:25.967Z,35.50
2018-07-30T19:45:30.277Z,36.10
2018-07-30T19:50:33.527Z,36.10
2018-07-30T19:55:36.796Z,36.10
2018-07-30T20:05:43.135Z,36.90
2018-07-30T20:10:46.388Z,37.10
2018-07-30T20:15:49.711Z,37.10
2018-07-30T20:20:53.091Z,37.50
2018-07-30T20:25:56.459Z,38.10
2018-07-30T20:30:59.775Z,38.30
2018-07-30T20:36:03.025Z,38.60
2018-07-30T20:41:06.349Z,38.50
2018-07-30T20:46:10.785Z,39.00
2018-07-30T20:51:14.159Z,39.10
2018-07-30T20:56:17.421Z,39.80
2018-07-30T21:01:21.604Z,39.30
2018-07-30T21:06:24.951Z,39.90
2018-07-30T21:11:28.380Z,40.20
2018-07-30T21:16:31.744Z,41.00
2018-07-30T21:21:35.077Z,41.50
2018-07-30T21:26:38.340Z,42.30
2018-07-30T21:31:42.001Z,43.30
2018-07-30T21:36:45.257Z,44.10
2018-07-30T21:41:48.663Z,44.70
2018-07-30T21:51:55.613Z,44.70
2018-07-30T21:56:58.974Z,44.40
2018-07-30T22:02:02.248Z,44.20
2018-07-30T22:07:05.648Z,45.30
2018-07-30T22:12:09.018Z,46.00
2018-07-30T22:17:13.940Z,46.70
2018-07-30T22:22:17.263Z,47.10
2018-07-30T22:27:20.551Z,47.80
2018-07-30T22:32:24.167Z,49.70
2018-07-30T22:37:28.801Z,50.70
2018-07-30T22:42:32.058Z,52.10
2018-07-30T22:47:35.366Z,54.20
2018-07-30T22:52:38.632Z,55.30
2018-07-30T22:57:41.996Z,55.70
2018-07-30T23:02:45.295Z,58.80
2018-07-30T23:07:48.624Z,61.60
2018-07-30T23:12:51.921Z,62.30
2018-07-30T23:17:55.364Z,60.10
2018-07-30T23:22:58.643Z,58.40
2018-07-30T23:28:01.931Z,61.70
2018-07-30T23:33:05.212Z,58.80
2018-07-30T23:38:08.466Z,59.00
2018-07-30T23:43:11.815Z,59.50
2018-07-30T23:48:15.127Z,59.20
2018-07-30T23:53:18.382Z,59.80
2018-07-30T23:58:21.659Z,59.60
